createdAt,value
2022-10-09T00:02:20.990Z,100343.69
2022-10-09T00:04:56.215Z,100342.47
2022-10-09T00:07:26.437Z,100338.72
2022-10-09T00:09:56.519Z,100337.66
2022-10-09T00:12:26.673Z,100333.91
2022-10-09T00:14:56.753Z,100335.59
2022-10-09T00:17:26.904Z,100339.22
2022-10-09T00:19:59.663Z,100344.72
2022-10-09T00:22:29.772Z,100336.03
2022-10-09T00:24:59.971Z,100333.34
2022-10-09T00:27:30.186Z,100322.72
2022-10-09T00:30:00.290Z,100329.06
2022-10-09T00:32:30.711Z,100330.34
2022-10-09T00:35:03.446Z,100324.94
2022-10-09T00:37:33.713Z,100330.81
2022-10-09T00:40:03.822Z,100332.78
2022-10-09T00:42:34.042Z,100331.78
2022-10-09T00:45:06.164Z,100334.50
2022-10-09T00:47:41.172Z,100331.88
2022-10-09T00:50:19.423Z,100332.13
2022-10-09T00:52:52.343Z,100332.34
2022-10-09T00:55:24.530Z,100327.78
2022-10-09T00:57:56.840Z,100328.38
2022-10-09T01:00:27.536Z,100325.63
2022-10-09T01:02:58.251Z,100320.31
2022-10-09T01:05:45.930Z,100316.00
2022-10-09T01:08:23.291Z,100310.09
2022-10-09T01:11:02.174Z,100320.81
2022-10-09T01:13:40.051Z,100313.25
2022-10-09T01:16:22.846Z,100317.38
2022-10-09T01:19:00.921Z,100311.72
2022-10-09T01:21:38.981Z,100311.59
2022-10-09T01:24:24.319Z,100311.97
2022-10-09T01:27:07.362Z,100306.31
2022-10-09T01:29:41.245Z,100300.44
2022-10-09T01:32:14.174Z,100309.38
2022-10-09T01:34:47.418Z,100302.41
2022-10-09T01:37:19.634Z,100299.03
2022-10-09T01:39:51.387Z,100305.16
2022-10-09T01:42:26.733Z,100300.84
2022-10-09T01:44:56.898Z,100304.44
2022-10-09T01:47:27.434Z,100308.03
2022-10-09T01:50:05.081Z,100311.78
2022-10-09T01:52:43.778Z,100299.72
2022-10-09T01:55:33.601Z,100299.00
2022-10-09T01:58:12.953Z,100296.00
2022-10-09T02:00:48.004Z,100309.59
2022-10-09T02:03:19.686Z,100311.00
2022-10-09T02:05:52.841Z,100308.16
2022-10-09T02:08:25.180Z,100308.88
2022-10-09T02:10:59.450Z,100313.41
2022-10-09T02:13:33.521Z,100312.69
2022-10-09T02:16:06.113Z,100310.28
2022-10-09T02:18:41.422Z,100306.72
2022-10-09T02:21:17.207Z,100318.59
2022-10-09T02:23:51.382Z,100315.97
2022-10-09T02:26:22.235Z,100324.84
2022-10-09T02:28:55.343Z,100323.03
2022-10-09T02:31:29.174Z,100321.94
2022-10-09T02:34:00.136Z,100321.13
2022-10-09T02:36:31.187Z,100324.56
2022-10-09T02:39:02.058Z,100327.09
2022-10-09T02:41:32.185Z,100335.75
2022-10-09T02:44:05.230Z,100321.72
2022-10-09T02:46:38.670Z,100342.09
2022-10-09T02:49:09.661Z,100337.94
2022-10-09T02:51:39.810Z,100344.19
2022-10-09T02:54:10.196Z,100329.13
2022-10-09T02:56:40.346Z,100345.34
2022-10-09T02:59:13.249Z,100341.25
2022-10-09T03:02:07.249Z,100335.25
2022-10-09T03:04:37.390Z,100343.03
2022-10-09T03:07:07.505Z,100353.13
2022-10-09T03:09:37.652Z,100348.19
2022-10-09T03:12:08.368Z,100351.06
2022-10-09T03:14:41.023Z,100343.25
2022-10-09T03:17:11.147Z,100338.09
2022-10-09T03:19:41.360Z,100339.28
2022-10-09T03:22:11.408Z,100342.16
2022-10-09T03:24:41.512Z,100333.38
2022-10-09T03:27:11.645Z,100344.78
2022-10-09T03:29:44.357Z,100349.13
2022-10-09T03:32:14.591Z,100358.72
2022-10-09T03:34:44.763Z,100354.91
2022-10-09T03:37:14.876Z,100351.91
2022-10-09T03:39:45.102Z,100355.06
2022-10-09T03:42:15.318Z,100355.91
2022-10-09T03:44:48.043Z,100351.44
2022-10-09T03:47:18.212Z,100352.88
2022-10-09T03:49:48.499Z,100357.19
2022-10-09T03:52:18.654Z,100366.22
2022-10-09T03:54:48.776Z,100371.97
2022-10-09T03:57:18.851Z,100377.47
2022-10-09T03:59:51.729Z,100387.47
2022-10-09T04:02:21.875Z,100397.78
2022-10-09T04:04:52.032Z,100398.38
2022-10-09T04:07:25.807Z,100401.41
2022-10-09T04:10:00.264Z,100390.28
2022-10-09T04:12:30.450Z,100383.41
2022-10-09T04:15:03.507Z,100374.41
2022-10-09T04:17:34.338Z,100391.22
2022-10-09T04:20:05.257Z,100397.59
2022-10-09T04:22:36.174Z,100389.78
2022-10-09T04:25:06.498Z,100395.28
2022-10-09T04:27:36.718Z,100397.44
2022-10-09T04:30:13.649Z,100407.25
2022-10-09T04:32:43.869Z,100411.81
2022-10-09T04:35:19.541Z,100430.28
2022-10-09T04:37:49.590Z,100445.44
2022-10-09T04:40:19.793Z,100450.25
2022-10-09T04:42:50.127Z,100456.75
2022-10-09T04:45:23.242Z,100462.19
2022-10-09T04:47:53.831Z,100452.59
2022-10-09T04:50:23.927Z,100452.22
2022-10-09T04:52:57.649Z,100455.25
2022-10-09T04:55:27.862Z,100455.63
2022-10-09T04:57:58.048Z,100450.84
2022-10-09T05:00:30.792Z,100451.34
2022-10-09T05:03:01.048Z,100445.06
2022-10-09T05:05:31.180Z,100442.06
2022-10-09T05:08:01.361Z,100448.94
2022-10-09T05:10:31.396Z,100449.16
2022-10-09T05:13:01.806Z,100473.69
2022-10-09T05:15:38.742Z,100477.56
2022-10-09T05:18:09.017Z,100470.03
2022-10-09T05:20:43.495Z,100469.16
2022-10-09T05:23:13.680Z,100471.34
2022-10-09T05:25:43.745Z,100474.13
2022-10-09T05:28:14.041Z,100479.03
2022-10-09T05:30:46.952Z,100482.03
2022-10-09T05:33:17.155Z,100470.84
2022-10-09T05:35:54.381Z,100477.34
2022-10-09T05:38:25.404Z,100488.78
2022-10-09T05:40:56.613Z,100496.25
2022-10-09T05:43:27.883Z,100494.09
2022-10-09T05:46:07.972Z,100492.72
2022-10-09T05:48:38.748Z,100496.94
2022-10-09T05:51:13.554Z,100503.91
2022-10-09T05:53:45.207Z,100507.41
2022-10-09T05:56:17.875Z,100505.47
2022-10-09T05:58:52.896Z,100501.63
2022-10-09T06:01:29.125Z,100507.41
2022-10-09T06:04:01.273Z,100510.66
2022-10-09T06:06:33.479Z,100507.88
2022-10-09T06:09:03.624Z,100510.03
2022-10-09T06:11:35.652Z,100507.81
2022-10-09T06:14:09.077Z,100518.09
2022-10-09T06:16:43.384Z,100515.88
2022-10-09T06:19:15.031Z,100518.94
2022-10-09T06:21:45.920Z,100526.06
2022-10-09T06:24:26.950Z,100529.25
2022-10-09T06:26:58.744Z,100528.31
2022-10-09T06:29:30.250Z,100524.66
2022-10-09T06:32:02.959Z,100529.16
2022-10-09T06:34:33.065Z,100541.84
2022-10-09T06:37:03.188Z,100538.78
2022-10-09T06:39:33.355Z,100544.81
2022-10-09T06:42:04.318Z,100549.78
2022-10-09T06:44:34.474Z,100552.09
2022-10-09T06:47:07.321Z,100553.84
2022-10-09T06:49:37.465Z,100560.84
2022-10-09T06:52:07.794Z,100564.53
2022-10-09T06:54:38.086Z,100567.94
2022-10-09T06:57:08.203Z,100558.44
2022-10-09T06:59:38.324Z,100554.75
2022-10-09T07:02:11.877Z,100563.75
2022-10-09T07:04:42.107Z,100566.41
2022-10-09T07:07:12.262Z,100564.34
2022-10-09T07:09:43.243Z,100571.03
2022-10-09T07:12:13.487Z,100572.59
2022-10-09T07:14:43.561Z,100575.25
2022-10-09T07:17:16.255Z,100578.06
2022-10-09T07:19:46.488Z,100582.81
2022-10-09T07:22:16.577Z,100576.94
2022-10-09T07:24:46.685Z,100573.53
2022-10-09T07:27:16.794Z,100580.00
2022-10-09T07:29:47.046Z,100573.78
2022-10-09T07:32:19.689Z,100580.59
2022-10-09T07:34:49.803Z,100583.53
2022-10-09T07:37:20.226Z,100584.44
2022-10-09T07:39:53.825Z,100586.41
2022-10-09T07:42:23.889Z,100585.09
2022-10-09T07:44:54.055Z,100593.63
2022-10-09T07:47:29.866Z,100595.09
2022-10-09T07:50:00.091Z,100597.47
2022-10-09T07:52:30.484Z,100595.47
2022-10-09T07:55:00.689Z,100593.47
2022-10-09T07:57:30.922Z,100592.75
2022-10-09T08:00:03.218Z,100594.00
2022-10-09T08:02:36.423Z,100591.38
2022-10-09T08:05:07.260Z,100590.72
2022-10-09T08:07:37.446Z,100594.91
2022-10-09T08:10:08.305Z,100590.25
2022-10-09T08:12:38.562Z,100589.56
2022-10-09T08:15:10.386Z,100594.97
2022-10-09T08:17:43.234Z,100599.88
2022-10-09T08:20:13.323Z,100598.47
2022-10-09T08:22:43.412Z,100601.22
2022-10-09T08:25:13.475Z,100604.13
2022-10-09T08:27:43.601Z,100610.66
2022-10-09T08:30:15.615Z,100605.38
2022-10-09T08:32:48.538Z,100596.47
2022-10-09T08:35:18.951Z,100598.88
2022-10-09T08:37:49.099Z,100600.50
2022-10-09T08:40:24.926Z,100612.00
2022-10-09T08:43:01.854Z,100605.03
2022-10-09T08:45:33.587Z,100610.16
2022-10-09T08:48:11.175Z,100612.88
2022-10-09T08:50:44.135Z,100620.97
2022-10-09T08:53:21.543Z,100617.00
2022-10-09T08:55:56.751Z,100624.09
2022-10-09T08:58:30.265Z,100621.31
2022-10-09T09:01:07.932Z,100613.22
2022-10-09T09:03:56.346Z,100620.88
2022-10-09T09:06:40.219Z,100623.75
2022-10-09T09:09:13.583Z,100625.25
2022-10-09T09:11:52.840Z,100620.50
2022-10-09T09:14:38.142Z,100626.88
2022-10-09T09:17:15.361Z,100621.28
2022-10-09T09:19:58.740Z,100631.97
2022-10-09T09:22:29.745Z,100625.75
2022-10-09T09:25:01.580Z,100635.91
2022-10-09T09:27:35.184Z,100625.25
2022-10-09T09:30:17.557Z,100629.28
2022-10-09T09:32:58.477Z,100636.19
2022-10-09T09:35:47.041Z,100642.94
2022-10-09T09:38:18.044Z,100636.97
2022-10-09T09:40:50.900Z,100644.69
2022-10-09T09:43:23.452Z,100641.41
2022-10-09T09:45:56.457Z,100646.88
2022-10-09T09:48:35.872Z,100644.78
2022-10-09T09:51:28.093Z,100642.44
2022-10-09T09:54:01.708Z,100632.72
2022-10-09T09:57:10.332Z,100637.16
2022-10-09T09:59:36.751Z,100639.53
2022-10-09T10:02:15.913Z,100640.19
2022-10-09T10:04:54.451Z,100649.94
2022-10-09T10:07:38.499Z,100643.25
2022-10-09T10:10:10.697Z,100647.44
2022-10-09T10:12:44.066Z,100647.53
2022-10-09T10:15:26.804Z,100646.84
2022-10-09T10:18:05.066Z,100649.25
2022-10-09T10:20:37.056Z,100645.38
2022-10-09T10:23:25.693Z,100654.56
2022-10-09T10:25:58.682Z,100653.91
2022-10-09T10:28:37.739Z,100650.53
2022-10-09T10:31:18.978Z,100634.47
2022-10-09T10:33:56.947Z,100642.50
2022-10-09T10:36:30.326Z,100652.34
2022-10-09T10:39:11.268Z,100653.94
2022-10-09T10:41:46.016Z,100650.91
2022-10-09T10:44:24.791Z,100645.13
2022-10-09T10:47:00.292Z,100649.66
2022-10-09T10:49:33.862Z,100651.94
2022-10-09T10:52:20.021Z,100655.03
2022-10-09T10:55:00.931Z,100660.78
2022-10-09T11:04:38.628Z,100648.16
2022-10-09T11:07:19.662Z,100642.50
2022-10-09T11:10:05.128Z,100647.13
2022-10-09T11:12:48.722Z,100642.50
2022-10-09T11:15:26.370Z,100653.13
2022-10-09T11:18:08.788Z,100640.94
2022-10-09T11:21:06.625Z,100638.22
2022-10-09T11:23:48.169Z,100631.25
2022-10-09T11:26:29.733Z,100621.91
2022-10-09T11:29:03.747Z,100627.75
2022-10-09T11:31:39.743Z,100626.38
2022-10-09T11:34:21.437Z,100632.03
2022-10-09T11:36:51.795Z,100636.25
2022-10-09T11:39:23.986Z,100632.44
2022-10-09T11:42:02.473Z,100638.41
2022-10-09T11:44:42.891Z,100634.19
2022-10-09T11:47:21.321Z,100643.19
2022-10-09T11:50:16.425Z,100640.66
2022-10-09T11:52:53.931Z,100639.84
2022-10-09T11:55:26.899Z,100635.91
2022-10-09T11:58:15.100Z,100629.69
2022-10-09T12:00:46.017Z,100629.88
2022-10-09T12:03:33.804Z,100631.84
2022-10-09T12:06:10.731Z,100629.44
2022-10-09T12:08:42.481Z,100627.69
2022-10-09T12:11:18.224Z,100639.91
2022-10-09T12:13:55.749Z,100634.34
2022-10-09T12:16:37.610Z,100630.63
2022-10-09T12:19:16.722Z,100629.38
2022-10-09T12:21:53.087Z,100626.22
2022-10-09T12:24:28.034Z,100633.22
2022-10-09T12:27:03.356Z,100623.75
2022-10-09T12:29:42.867Z,100623.72
2022-10-09T12:32:20.079Z,100626.41
2022-10-09T12:34:52.824Z,100632.06
2022-10-09T12:37:24.825Z,100624.22
2022-10-09T12:39:55.081Z,100626.72
2022-10-09T12:42:27.350Z,100622.63
2022-10-09T12:45:00.633Z,100621.47
2022-10-09T12:47:33.050Z,100617.97
2022-10-09T12:50:15.445Z,100614.56
2022-10-09T12:52:52.450Z,100615.78
2022-10-09T12:55:28.696Z,100611.88
2022-10-09T12:58:03.548Z,100605.19
2022-10-09T13:00:40.045Z,100620.84
2022-10-09T13:03:27.110Z,100624.97
2022-10-09T13:06:00.423Z,100627.94
2022-10-09T13:08:33.937Z,100625.09
2022-10-09T13:11:11.728Z,100627.44
2022-10-09T13:13:42.866Z,100613.84
2022-10-09T13:16:15.670Z,100620.41
2022-10-09T13:18:46.151Z,100616.94
2022-10-09T13:21:32.712Z,100619.97
2022-10-09T13:24:13.399Z,100614.28
2022-10-09T13:26:46.774Z,100609.78
2022-10-09T13:29:17.498Z,100607.94
2022-10-09T13:31:50.579Z,100610.81
2022-10-09T13:34:23.799Z,100606.63
2022-10-09T13:36:54.063Z,100613.00
2022-10-09T13:39:24.342Z,100611.34
2022-10-09T13:41:57.484Z,100607.97
2022-10-09T13:44:27.602Z,100622.22
2022-10-09T13:47:00.667Z,100611.66
2022-10-09T13:49:30.846Z,100611.84
2022-10-09T13:52:01.076Z,100603.78
2022-10-09T13:54:31.428Z,100610.66
2022-10-09T13:57:01.659Z,100604.94
2022-10-09T13:59:32.480Z,100606.47
2022-10-09T14:02:05.277Z,100612.66
2022-10-09T14:04:35.514Z,100608.81
2022-10-09T14:07:05.766Z,100608.47
2022-10-09T14:09:36.019Z,100600.44
2022-10-09T14:12:06.327Z,100602.59
2022-10-09T14:14:36.506Z,100601.09
2022-10-09T14:17:09.307Z,100603.59
2022-10-09T14:19:39.713Z,100606.53
2022-10-09T14:22:09.873Z,100613.09
2022-10-09T14:24:41.041Z,100603.66
2022-10-09T14:27:11.158Z,100605.22
2022-10-09T14:29:41.878Z,100600.34
2022-10-09T14:32:15.029Z,100599.50
2022-10-09T14:34:45.189Z,100609.31
2022-10-09T14:37:29.741Z,100609.00
2022-10-09T14:40:06.598Z,100598.13
2022-10-09T14:42:36.775Z,100606.78
2022-10-09T14:45:07.992Z,100608.66
2022-10-09T14:47:40.765Z,100614.91
2022-10-09T14:50:12.271Z,100604.63
2022-10-09T14:52:42.436Z,100608.56
2022-10-09T14:55:12.759Z,100599.97
2022-10-09T14:57:43.785Z,100606.81
2022-10-09T15:00:15.737Z,100601.84
2022-10-09T15:02:48.476Z,100601.94
2022-10-09T15:05:18.775Z,100602.94
2022-10-09T15:07:49.264Z,100603.78
2022-10-09T15:10:19.694Z,100612.06
2022-10-09T15:12:49.795Z,100613.38
2022-10-09T15:15:20.054Z,100610.72
2022-10-09T15:17:52.957Z,100617.56
2022-10-09T15:20:26.129Z,100625.38
2022-10-09T15:22:56.300Z,100617.72
2022-10-09T15:25:31.264Z,100621.56
2022-10-09T15:28:03.347Z,100622.09
2022-10-09T15:30:33.883Z,100629.75
2022-10-09T15:33:06.973Z,100629.03
2022-10-09T15:35:39.196Z,100635.53
2022-10-09T15:38:09.477Z,100629.59
2022-10-09T15:40:46.732Z,100643.81
2022-10-09T15:43:18.800Z,100638.72
2022-10-09T15:45:49.465Z,100635.09
2022-10-09T15:48:24.109Z,100652.19
2022-10-09T15:50:54.643Z,100648.03
2022-10-09T15:53:26.811Z,100658.28
2022-10-09T15:55:59.292Z,100653.44
2022-10-09T15:58:29.429Z,100651.25
2022-10-09T16:01:04.917Z,100654.19
2022-10-09T16:03:38.214Z,100660.69
2022-10-09T16:06:11.214Z,100664.38
2022-10-09T16:08:42.059Z,100663.13
2022-10-09T16:11:14.886Z,100670.81
2022-10-09T16:13:46.713Z,100659.50
2022-10-09T16:16:19.872Z,100660.09
2022-10-09T16:18:53.413Z,100661.06
2022-10-09T16:21:27.484Z,100675.09
2022-10-09T16:23:59.139Z,100681.66
2022-10-09T16:26:31.193Z,100687.84
2022-10-09T16:29:04.225Z,100692.19
2022-10-09T16:31:36.497Z,100698.47
2022-10-09T16:34:09.924Z,100696.25
2022-10-09T16:36:40.104Z,100707.72
2022-10-09T16:39:10.335Z,100716.81
2022-10-09T16:41:42.120Z,100726.78
2022-10-09T16:44:17.121Z,100718.66
2022-10-09T16:46:47.377Z,100721.00
2022-10-09T16:49:22.916Z,100722.09
2022-10-09T16:51:55.493Z,100729.00
2022-10-09T16:54:26.069Z,100723.50
2022-10-09T16:56:56.256Z,100732.03
2022-10-09T16:59:26.357Z,100729.19
2022-10-09T17:01:57.417Z,100736.81
2022-10-09T17:04:30.073Z,100725.38
2022-10-09T17:07:03.060Z,100735.41
2022-10-09T17:09:34.341Z,100745.16
2022-10-09T17:12:04.557Z,100740.97
2022-10-09T17:14:35.736Z,100727.91
2022-10-09T17:17:05.948Z,100735.88
2022-10-09T17:19:39.514Z,100751.84
2022-10-09T17:22:09.673Z,100740.22
2022-10-09T17:24:39.857Z,100742.91
2022-10-09T17:27:10.214Z,100740.31
2022-10-09T17:29:40.581Z,100736.69
2022-10-09T17:32:15.828Z,100732.91
2022-10-09T17:34:48.747Z,100741.47
2022-10-09T17:37:18.938Z,100742.13
2022-10-09T17:39:52.241Z,100742.13
2022-10-09T17:42:25.242Z,100747.84
2022-10-09T17:44:55.417Z,100744.06
2022-10-09T17:47:25.623Z,100745.69
2022-10-09T17:49:58.463Z,100747.91
2022-10-09T17:52:28.824Z,100748.84
2022-10-09T17:54:58.983Z,100756.69
2022-10-09T17:57:31.939Z,100750.59
2022-10-09T18:00:02.152Z,100761.50
2022-10-09T18:02:32.393Z,100755.28
2022-10-09T18:05:05.227Z,100754.97
2022-10-09T18:07:38.848Z,100757.75
2022-10-09T18:10:10.216Z,100762.53
2022-10-09T18:12:40.296Z,100759.19
2022-10-09T18:15:11.607Z,100763.97
2022-10-09T18:17:41.987Z,100763.78
2022-10-09T18:20:14.805Z,100768.53
2022-10-09T18:22:44.971Z,100754.41
2022-10-09T18:25:15.093Z,100769.59
2022-10-09T18:27:47.748Z,100768.97
2022-10-09T18:30:20.750Z,100775.06
2022-10-09T18:32:51.423Z,100780.50
2022-10-09T18:35:25.644Z,100779.72
2022-10-09T18:37:56.279Z,100784.56
2022-10-09T18:40:26.375Z,100787.22
2022-10-09T18:42:56.503Z,100788.31
2022-10-09T18:45:26.991Z,100796.78
2022-10-09T18:47:57.267Z,100798.81
2022-10-09T18:50:30.701Z,100795.72
2022-10-09T18:53:04.045Z,100798.13
2022-10-09T18:55:34.496Z,100797.06
2022-10-09T18:58:07.439Z,100812.84
2022-10-09T19:00:40.302Z,100802.25
2022-10-09T19:03:10.637Z,100816.56
2022-10-09T19:05:45.048Z,100815.84
2022-10-09T19:08:15.128Z,100813.69
2022-10-09T19:10:45.316Z,100803.09
2022-10-09T19:13:15.377Z,100804.47
2022-10-09T19:15:45.561Z,100802.03
2022-10-09T19:18:15.744Z,100812.00
2022-10-09T19:20:48.568Z,100802.41
2022-10-09T19:23:18.841Z,100810.97
2022-10-09T19:25:51.014Z,100805.06
2022-10-09T19:28:22.037Z,100811.16
2022-10-09T19:30:52.901Z,100825.78
2022-10-09T19:33:23.044Z,100820.63
2022-10-09T19:35:57.792Z,100807.59
2022-10-09T19:38:29.671Z,100815.81
2022-10-09T19:41:05.769Z,100817.41
2022-10-09T19:43:36.359Z,100813.91
2022-10-09T19:46:08.322Z,100817.53
2022-10-09T19:48:38.709Z,100812.94
2022-10-09T19:51:13.357Z,100807.41
2022-10-09T19:53:43.759Z,100807.91
2022-10-09T19:56:16.440Z,100829.22
2022-10-09T19:58:48.101Z,100832.44
2022-10-09T20:01:21.123Z,100837.56
2022-10-09T20:03:56.067Z,100841.31
2022-10-09T20:06:29.556Z,100846.34
2022-10-09T20:09:00.256Z,100845.63
2022-10-09T20:11:30.402Z,100850.31
2022-10-09T20:14:01.723Z,100846.44
2022-10-09T20:16:33.701Z,100841.16
2022-10-09T20:19:05.676Z,100854.41
2022-10-09T20:21:38.574Z,100848.72
2022-10-09T20:24:09.786Z,100860.28
2022-10-09T20:26:43.163Z,100860.59
2022-10-09T20:29:13.877Z,100864.56
2022-10-09T20:31:44.499Z,100866.34
2022-10-09T20:34:14.690Z,100869.13
2022-10-09T20:36:47.966Z,100867.06
2022-10-09T20:39:19.730Z,100868.97
2022-10-09T20:41:50.858Z,100863.72
2022-10-09T20:44:21.021Z,100866.44
2022-10-09T20:46:53.382Z,100876.53
2022-10-09T20:49:23.647Z,100882.44
2022-10-09T20:51:56.959Z,100875.66
2022-10-09T20:54:30.559Z,100875.34
2022-10-09T20:57:01.363Z,100878.41
2022-10-09T20:59:31.497Z,100879.94
2022-10-09T21:02:01.589Z,100863.50
2022-10-09T21:04:32.288Z,100863.53
2022-10-09T21:07:05.043Z,100859.97
2022-10-09T21:09:35.398Z,100862.78
2022-10-09T21:12:07.043Z,100866.34
2022-10-09T21:14:37.205Z,100864.44
2022-10-09T21:17:07.302Z,100862.03
2022-10-09T21:19:40.442Z,100861.72
2022-10-09T21:22:13.088Z,100863.84
2022-10-09T21:24:43.285Z,100867.13
2022-10-09T21:27:13.400Z,100869.44
2022-10-09T21:29:43.576Z,100865.63
2022-10-09T21:32:13.717Z,100870.69
2022-10-09T21:34:43.895Z,100864.09
2022-10-09T21:37:21.514Z,100870.88
2022-10-09T21:39:52.461Z,100862.31
2022-10-09T21:42:22.642Z,100869.97
2022-10-09T21:44:52.701Z,100860.25
2022-10-09T21:47:22.879Z,100860.44
2022-10-09T21:49:53.327Z,100858.19
2022-10-09T21:52:26.041Z,100861.88
2022-10-09T21:54:56.237Z,100854.91
2022-10-09T21:57:26.418Z,100862.16
2022-10-09T21:59:58.991Z,100863.97
2022-10-09T22:02:29.061Z,100868.09
2022-10-09T22:04:59.170Z,100867.72
2022-10-09T22:07:33.162Z,100856.97
2022-10-09T22:10:03.495Z,100851.69
2022-10-09T22:12:33.835Z,100854.50
2022-10-09T22:15:04.056Z,100852.81
2022-10-09T22:17:34.206Z,100862.97
2022-10-09T22:20:04.337Z,100864.78
2022-10-09T22:22:37.115Z,100861.91
2022-10-09T22:25:08.231Z,100867.50
2022-10-09T22:27:38.414Z,100870.56
2022-10-09T22:30:10.254Z,100870.22
2022-10-09T22:32:40.395Z,100868.28
2022-10-09T22:35:11.472Z,100872.28
2022-10-09T22:37:44.201Z,100869.94
2022-10-09T22:40:14.441Z,100866.47
2022-10-09T22:42:44.513Z,100866.13
2022-10-09T22:45:14.618Z,100864.03
2022-10-09T22:47:44.738Z,100860.91
2022-10-09T22:50:14.808Z,100868.19
2022-10-09T22:52:47.564Z,100867.34
2022-10-09T22:55:18.012Z,100868.72
2022-10-09T22:57:48.082Z,100869.56
2022-10-09T23:00:19.006Z,100872.22
2022-10-09T23:02:49.257Z,100868.09
2022-10-09T23:05:19.770Z,100867.13
2022-10-09T23:07:52.553Z,100866.94
2022-10-09T23:10:22.688Z,100869.56
2022-10-09T23:12:53.176Z,100860.66
2022-10-09T23:15:23.456Z,100863.19
2022-10-09T23:17:53.770Z,100868.47
2022-10-09T23:20:23.906Z,100875.91
2022-10-09T23:22:56.790Z,100875.16
2022-10-09T23:25:26.879Z,100868.84
2022-10-09T23:27:57.000Z,100866.75
2022-10-09T23:30:27.184Z,100859.41
2022-10-09T23:32:57.293Z,100863.94
2022-10-09T23:35:29.999Z,100868.44
2022-10-09T23:38:02.731Z,100865.38
2022-10-09T23:40:32.793Z,100856.94
2022-10-09T23:43:02.925Z,100864.09
2022-10-09T23:45:33.057Z,100860.53
2022-10-09T23:48:03.182Z,100867.69
2022-10-09T23:50:33.339Z,100865.41
2022-10-09T23:53:06.068Z,100868.34
2022-10-09T23:55:36.075Z,100872.03
2022-10-09T23:58:06.277Z,100867.41
